Port Morien, Canada
Current Conditions -  °F | °C
As of 9:00 PM on Wednesday 22 Oct 2014 (Local Time) from CYQY Reporting Station
Scattered Clouds Scattered Clouds  
Wind Chill: 45°   Ceiling: Unl
Heat Index: 48°   Visibility: 15mi
Dew Point: 45°   Wind: 7mph
Humidity: 87%   Direction: 70°ENE
Pressure: 30.36"   Gusts: NA
Location:  46.13°N, 59.88°W
Report Text: CYQY 230000Z 07006KT 15SM FEW021 SCT240 09/07 A3036 RMK SC2CI2 SLP284
Loading
Personal Weather Stations






























Interactive Weather Map
Tropical Storm Tracking
New forecast layout! Learn more

10-Day Weather Forecast

Advertisements
Track Severe Weather on mobile